Main page
METAR-TAF:

METAR-TAF

Airports :

Nakhon Si Thammarat Airport

Nakhon Si Thammarat, Thailand

latitude: 8-32-22N, longitude: 99-56-41E, elevation: 4 m

Current weather observation

The report was made 1 hour and 19 minutes ago, at 03:00 UTC
Wind 6 kt from the Southeast, varying between East and South
Temperature 30°C
Humidity 70%
Pressure 1014 hPa
Visibility 10 km or more
Broken clouds at a height of 1800 ft

METAR: VTSF 250300Z 13006KT 080V170 9999 BKN018 30/24 Q1014 NOSIG

Time: 11:19 (04:19 UTC)

Forecast

The report was made 5 hours and 19 minutes ago, at 23:00 UTC
Forecast valid from 25 at 00 UTC to 25 at 24 UTC
Wind 3 kt from the West/Southwest
Visibility 10 km or more
Few clouds at a height of 2000 ft
Becoming
from 25 at 03 UTC to 25 at 05 UTC
Wind 10 kt from the East
Becoming
from 25 at 13 UTC to 25 at 15 UTC
Wind 3 kt from the West/Southwest

TAF: VTSF 242300Z 2500/2524 24003KT 9999 FEW020 BECMG 2503/2505 10010KT BECMG 2513/2515 24003KT

Weather observations and forecasts of more than 4000 airports (METAR and TAF reports).

The available stations are represented by yellow and red dots on the map.

Hover mouse over dot to see the name of the station.

Then click to see weather observations and forecasts.

To change the map : click on the green buttons with a black cross to zoom in, on the green button with a dash to zoom out, or on the green arrows for adjacent maps.


METAR-TAF: